createdAt,value
2022-08-30T00:00:08.272Z,0.00
2022-08-30T00:01:08.243Z,0.00
2022-08-30T00:02:09.310Z,0.00
2022-08-30T00:03:08.319Z,0.00
2022-08-30T00:04:08.223Z,0.00
2022-08-30T00:05:08.183Z,0.00
2022-08-30T00:06:08.177Z,0.00
2022-08-30T00:07:08.186Z,0.00
2022-08-30T00:08:08.178Z,0.00
2022-08-30T00:09:08.144Z,0.00
2022-08-30T00:10:08.161Z,0.00
2022-08-30T00:11:08.128Z,0.00
2022-08-30T00:12:08.136Z,0.00
2022-08-30T00:13:08.115Z,0.00
2022-08-30T00:14:08.097Z,0.00
2022-08-30T00:15:08.086Z,0.00
2022-08-30T00:16:08.117Z,0.00
2022-08-30T00:17:08.068Z,0.00
2022-08-30T00:18:08.049Z,0.00
2022-08-30T00:19:08.037Z,0.00
2022-08-30T00:20:08.037Z,0.00
2022-08-30T00:21:08.019Z,0.00
2022-08-30T00:22:08.028Z,0.00
2022-08-30T00:23:07.999Z,0.00
2022-08-30T00:24:08.000Z,0.00
2022-08-30T00:25:07.988Z,0.00
2022-08-30T00:26:07.968Z,0.00
2022-08-30T00:27:07.967Z,0.00
2022-08-30T00:28:07.940Z,0.00
2022-08-30T00:29:07.930Z,0.00
2022-08-30T00:30:07.910Z,0.00
2022-08-30T00:31:07.984Z,0.00
2022-08-30T00:32:07.900Z,0.00
2022-08-30T00:33:07.890Z,0.00
2022-08-30T00:34:07.863Z,0.00
2022-08-30T00:35:07.870Z,0.00
2022-08-30T00:36:07.851Z,0.00
2022-08-30T00:37:07.861Z,0.00
2022-08-30T00:38:07.823Z,0.00
2022-08-30T00:39:07.822Z,0.00
2022-08-30T00:40:07.841Z,0.00
2022-08-30T00:41:07.795Z,0.00
2022-08-30T00:42:07.793Z,0.00
2022-08-30T00:43:07.800Z,0.00
2022-08-30T00:44:07.747Z,0.00
2022-08-30T00:45:07.774Z,0.00
2022-08-30T00:46:07.809Z,0.00
2022-08-30T00:47:07.752Z,0.00
2022-08-30T00:48:07.734Z,0.00
2022-08-30T00:49:07.727Z,0.00
2022-08-30T00:50:07.696Z,0.00
2022-08-30T00:51:07.699Z,0.00
2022-08-30T00:52:07.686Z,0.00
2022-08-30T00:53:07.665Z,0.00
2022-08-30T00:54:07.647Z,0.00
2022-08-30T00:55:07.648Z,0.00
2022-08-30T00:56:07.627Z,0.00
2022-08-30T00:57:07.628Z,0.00
2022-08-30T00:58:07.603Z,0.00
2022-08-30T00:59:07.604Z,0.00
2022-08-30T01:00:07.591Z,0.00
2022-08-30T01:01:07.624Z,0.00
2022-08-30T01:02:07.617Z,0.00
2022-08-30T01:03:07.559Z,0.00
2022-08-30T01:04:07.539Z,0.00
2022-08-30T01:05:07.528Z,0.00
2022-08-30T01:06:07.516Z,0.00
2022-08-30T01:07:07.549Z,0.00
2022-08-30T01:08:07.499Z,0.00
2022-08-30T01:09:07.493Z,0.00
2022-08-30T01:10:07.470Z,0.00
2022-08-30T01:11:07.484Z,0.00
2022-08-30T01:12:07.461Z,0.00
2022-08-30T01:13:07.442Z,0.00
2022-08-30T01:14:07.432Z,0.00
2022-08-30T01:15:07.425Z,0.00
2022-08-30T01:16:07.458Z,0.00
2022-08-30T01:17:07.432Z,0.00
2022-08-30T01:18:07.913Z,0.00
2022-08-30T01:19:07.384Z,0.00
2022-08-30T01:20:07.374Z,0.00
2022-08-30T01:21:07.355Z,0.00
2022-08-30T01:22:07.354Z,0.00
2022-08-30T01:23:07.345Z,0.00
2022-08-30T01:24:07.305Z,0.00
2022-08-30T01:25:08.093Z,0.00
2022-08-30T01:26:07.287Z,0.00
2022-08-30T01:27:07.308Z,0.00
2022-08-30T01:28:07.295Z,0.00
2022-08-30T01:29:07.256Z,0.00
2022-08-30T01:30:07.258Z,0.00
2022-08-30T01:31:07.288Z,0.00
2022-08-30T01:32:07.259Z,0.00
2022-08-30T01:33:07.246Z,0.00
2022-08-30T01:34:07.211Z,0.00
2022-08-30T01:35:07.198Z,0.00
2022-08-30T01:36:07.180Z,0.00
2022-08-30T01:37:07.186Z,0.00
2022-08-30T01:38:07.189Z,0.00
2022-08-30T01:39:07.160Z,0.00
2022-08-30T01:40:07.170Z,0.00
2022-08-30T01:41:07.130Z,0.00
2022-08-30T01:42:07.116Z,0.00
2022-08-30T01:43:07.130Z,0.00
2022-08-30T01:44:07.090Z,0.00
2022-08-30T01:45:07.079Z,0.00
2022-08-30T01:46:07.110Z,0.00
2022-08-30T01:47:07.060Z,0.00
2022-08-30T01:48:07.071Z,0.00
2022-08-30T01:49:07.042Z,0.00
2022-08-30T01:50:07.021Z,0.00
2022-08-30T01:51:07.024Z,0.00
2022-08-30T01:52:07.013Z,0.00
2022-08-30T01:53:07.001Z,0.00
2022-08-30T01:54:06.974Z,0.00
2022-08-30T01:55:06.985Z,0.00
2022-08-30T01:56:06.953Z,0.00
2022-08-30T01:57:06.972Z,0.00
2022-08-30T01:58:06.934Z,0.00
2022-08-30T01:59:06.925Z,0.00
2022-08-30T02:00:06.913Z,0.00
2022-08-30T02:01:06.939Z,0.00
2022-08-30T02:02:06.923Z,0.00
2022-08-30T02:03:06.884Z,0.00
2022-08-30T02:04:06.912Z,0.00
2022-08-30T02:05:06.865Z,0.00
2022-08-30T02:06:06.855Z,0.00
2022-08-30T02:07:06.865Z,0.00
2022-08-30T02:08:06.832Z,0.00
2022-08-30T02:09:06.818Z,0.00
2022-08-30T02:10:06.801Z,0.00
2022-08-30T02:11:06.796Z,0.00
2022-08-30T02:12:08.459Z,0.00
2022-08-30T02:13:06.768Z,0.00
2022-08-30T02:14:06.768Z,0.00
2022-08-30T02:15:06.748Z,0.00
2022-08-30T02:16:06.737Z,0.00
2022-08-30T02:17:08.411Z,0.00
2022-08-30T02:18:06.736Z,0.00
2022-08-30T02:19:06.737Z,0.00
2022-08-30T02:20:06.689Z,0.00
2022-08-30T02:21:06.678Z,0.00
2022-08-30T02:22:06.687Z,0.00
2022-08-30T02:23:06.650Z,0.00
2022-08-30T02:24:06.651Z,0.00
2022-08-30T02:25:06.657Z,0.00
2022-08-30T02:26:06.620Z,0.00
2022-08-30T02:27:06.627Z,0.00
2022-08-30T02:28:06.613Z,0.00
2022-08-30T02:29:06.609Z,0.00
2022-08-30T02:30:06.581Z,0.00
2022-08-30T02:31:06.600Z,0.00
2022-08-30T02:32:06.551Z,0.00
2022-08-30T02:33:06.579Z,0.00
2022-08-30T02:34:06.570Z,0.00
2022-08-30T02:35:06.532Z,0.00
2022-08-30T02:36:06.523Z,0.00
2022-08-30T02:37:06.515Z,0.00
2022-08-30T02:38:06.503Z,0.00
2022-08-30T02:39:06.509Z,0.00
2022-08-30T02:40:06.517Z,0.00
2022-08-30T02:41:06.468Z,0.00
2022-08-30T02:42:06.444Z,0.00
2022-08-30T02:43:06.443Z,0.00
2022-08-30T02:44:06.415Z,0.00
2022-08-30T02:45:06.423Z,0.00
2022-08-30T02:46:08.162Z,0.00
2022-08-30T02:47:06.394Z,0.00
2022-08-30T02:48:06.395Z,0.00
2022-08-30T02:49:30.359Z,0.00
2022-08-30T02:50:07.367Z,0.00
2022-08-30T02:51:11.865Z,0.00
2022-08-30T02:52:06.337Z,0.00
2022-08-30T02:53:06.374Z,0.00
2022-08-30T02:54:06.317Z,0.00
2022-08-30T02:55:06.306Z,0.00
2022-08-30T02:56:06.301Z,0.00
2022-08-30T02:57:06.286Z,0.00
2022-08-30T02:58:06.280Z,0.00
2022-08-30T02:59:06.268Z,0.00
2022-08-30T03:00:06.248Z,0.00
2022-08-30T03:01:06.304Z,0.00
2022-08-30T03:02:06.255Z,0.00
2022-08-30T03:03:06.217Z,0.00
2022-08-30T03:04:06.252Z,0.00
2022-08-30T03:05:06.210Z,0.00
2022-08-30T03:06:06.170Z,0.00
2022-08-30T03:07:06.190Z,0.00
2022-08-30T03:08:06.170Z,0.00
2022-08-30T03:09:07.820Z,0.00
2022-08-30T03:10:06.140Z,0.00
2022-08-30T03:11:06.138Z,0.00
2022-08-30T03:12:06.121Z,0.00
2022-08-30T03:13:08.925Z,0.00
2022-08-30T03:14:06.101Z,0.00
2022-08-30T03:15:06.097Z,0.00
2022-08-30T03:16:06.106Z,0.00
2022-08-30T03:17:06.081Z,0.00
2022-08-30T03:18:06.052Z,0.00
2022-08-30T03:19:06.051Z,0.00
2022-08-30T03:20:06.055Z,0.00
2022-08-30T03:21:06.024Z,0.00
2022-08-30T03:22:06.021Z,0.00
2022-08-30T03:23:06.004Z,0.00
2022-08-30T03:24:05.986Z,0.00
2022-08-30T03:25:05.984Z,0.00
2022-08-30T03:26:06.782Z,0.00
2022-08-30T03:27:05.976Z,0.00
2022-08-30T03:28:05.943Z,0.00
2022-08-30T03:29:05.942Z,0.00
2022-08-30T03:30:05.915Z,0.00
2022-08-30T03:31:05.915Z,0.00
2022-08-30T03:32:05.982Z,0.00
2022-08-30T03:33:05.884Z,0.00
2022-08-30T03:34:05.877Z,0.00
2022-08-30T03:35:05.874Z,0.00
2022-08-30T03:36:05.849Z,0.00
2022-08-30T03:37:05.856Z,0.00
2022-08-30T03:38:05.840Z,0.00
2022-08-30T03:39:05.817Z,0.00
2022-08-30T03:40:05.838Z,0.00
2022-08-30T03:41:05.801Z,0.00
2022-08-30T03:42:05.801Z,0.00
2022-08-30T03:43:05.789Z,0.00
2022-08-30T03:44:05.768Z,0.00
2022-08-30T03:45:05.757Z,0.00
2022-08-30T03:46:05.757Z,0.00
2022-08-30T03:47:05.760Z,0.00
2022-08-30T03:48:05.721Z,0.00
2022-08-30T03:49:05.719Z,0.00
2022-08-30T03:50:05.706Z,0.00
2022-08-30T03:51:06.110Z,0.00
2022-08-30T03:52:05.683Z,0.00
2022-08-30T03:53:05.670Z,0.00
2022-08-30T03:54:05.670Z,0.00
2022-08-30T03:55:05.652Z,0.00
2022-08-30T03:56:05.642Z,0.00
2022-08-30T03:57:05.641Z,0.00
2022-08-30T03:58:05.611Z,0.00
2022-08-30T03:59:05.609Z,0.00
2022-08-30T04:00:05.590Z,0.00
2022-08-30T04:01:05.643Z,0.00
2022-08-30T04:02:05.679Z,0.00
2022-08-30T04:03:05.565Z,0.00
2022-08-30T04:04:05.541Z,0.00
2022-08-30T04:05:05.553Z,0.00
2022-08-30T04:06:05.553Z,0.00
2022-08-30T04:07:05.534Z,0.00
2022-08-30T04:08:05.515Z,0.00
2022-08-30T04:09:06.316Z,0.00
2022-08-30T04:10:05.465Z,0.00
2022-08-30T04:11:05.417Z,1.00
2022-08-30T04:12:05.417Z,1.00
2022-08-30T04:13:05.455Z,0.00
2022-08-30T04:14:05.427Z,0.00
2022-08-30T04:15:05.434Z,0.00
2022-08-30T04:16:05.483Z,0.00
2022-08-30T04:17:05.386Z,1.00
2022-08-30T04:18:05.396Z,0.00
2022-08-30T04:19:05.349Z,2.00
2022-08-30T04:20:05.316Z,1.00
2022-08-30T04:21:05.340Z,1.00
2022-08-30T04:22:05.307Z,6.00
2022-08-30T04:23:05.295Z,2.00
2022-08-30T04:24:05.277Z,2.00
2022-08-30T04:25:05.259Z,2.00
2022-08-30T04:26:05.259Z,3.00
2022-08-30T04:27:05.258Z,4.00
2022-08-30T04:28:05.228Z,4.00
2022-08-30T04:29:05.238Z,4.00
2022-08-30T04:30:05.220Z,5.00
2022-08-30T04:31:05.195Z,6.00
2022-08-30T04:32:06.305Z,10.00
2022-08-30T04:33:05.179Z,10.00
2022-08-30T04:34:05.200Z,12.00
2022-08-30T04:35:05.162Z,14.00
2022-08-30T04:36:05.140Z,16.00
2022-08-30T04:37:05.150Z,16.00
2022-08-30T04:38:05.120Z,23.00
2022-08-30T04:39:05.127Z,28.00
2022-08-30T04:40:05.150Z,29.00
2022-08-30T04:41:05.093Z,33.00
2022-08-30T04:42:05.093Z,37.00
2022-08-30T04:43:05.082Z,44.00
2022-08-30T04:44:05.062Z,50.00
2022-08-30T04:45:05.051Z,58.00
2022-08-30T04:46:05.126Z,67.00
2022-08-30T04:47:05.055Z,76.00
2022-08-30T04:48:06.665Z,86.00
2022-08-30T04:49:05.002Z,95.00
2022-08-30T04:50:05.021Z,103.00
2022-08-30T04:51:04.984Z,109.00
2022-08-30T04:52:04.986Z,120.00
2022-08-30T04:53:04.978Z,130.00
2022-08-30T04:54:04.966Z,132.00
2022-08-30T04:55:04.976Z,143.00
2022-08-30T04:56:04.941Z,150.00
2022-08-30T04:57:04.959Z,161.00
2022-08-30T04:58:04.946Z,169.00
2022-08-30T04:59:04.916Z,184.00
2022-08-30T05:00:04.922Z,187.00
2022-08-30T05:01:04.956Z,194.00
2022-08-30T05:02:04.993Z,205.00
2022-08-30T05:03:04.867Z,217.00
2022-08-30T05:04:04.848Z,230.00
2022-08-30T05:05:04.845Z,234.00
2022-08-30T05:06:04.848Z,242.00
2022-08-30T05:07:04.834Z,248.00
2022-08-30T05:08:04.809Z,254.00
2022-08-30T05:09:04.798Z,254.00
2022-08-30T05:10:09.069Z,265.00
2022-08-30T05:11:05.787Z,283.00
2022-08-30T05:12:04.788Z,294.00
2022-08-30T05:13:04.759Z,310.00
2022-08-30T05:14:04.747Z,333.00
2022-08-30T05:15:04.762Z,332.00
2022-08-30T05:16:04.828Z,345.00
2022-08-30T05:17:04.728Z,356.00
2022-08-30T05:18:04.699Z,359.00
2022-08-30T05:19:04.688Z,358.00
2022-08-30T05:20:04.680Z,367.00
2022-08-30T05:21:04.660Z,375.00
2022-08-30T05:22:04.689Z,404.00
2022-08-30T05:23:04.672Z,446.00
2022-08-30T05:24:04.650Z,421.00
2022-08-30T05:25:04.625Z,404.00
2022-08-30T05:26:04.620Z,461.00
2022-08-30T05:27:04.630Z,493.00
2022-08-30T05:28:04.591Z,501.00
2022-08-30T05:29:04.583Z,513.00
2022-08-30T05:30:04.581Z,522.00
2022-08-30T05:31:04.614Z,533.00
2022-08-30T05:32:05.583Z,536.00
2022-08-30T05:33:04.541Z,542.00
2022-08-30T05:34:06.294Z,539.00
2022-08-30T05:35:04.533Z,562.00
2022-08-30T05:36:04.538Z,571.00
2022-08-30T05:37:05.292Z,584.00
2022-08-30T05:38:04.504Z,603.00
2022-08-30T05:39:09.037Z,620.00
2022-08-30T05:40:04.526Z,619.00
2022-08-30T05:41:10.714Z,615.00
2022-08-30T05:42:07.012Z,582.00
2022-08-30T05:43:08.044Z,657.00
2022-08-30T05:44:04.446Z,676.00
2022-08-30T05:45:28.348Z,666.00
2022-08-30T05:46:06.788Z,690.00
2022-08-30T05:47:05.656Z,715.00
2022-08-30T05:48:08.902Z,734.00
2022-08-30T05:49:04.383Z,747.00
2022-08-30T05:52:52.949Z,917.00
2022-08-30T05:56:52.025Z,969.00
2022-08-30T05:59:51.340Z,938.00
2022-08-30T06:00:51.335Z,1117.00
2022-08-30T06:01:48.010Z,840.00
2022-08-30T06:02:47.867Z,879.00
2022-08-30T06:03:50.513Z,881.00
2022-08-30T06:04:57.508Z,950.00
2022-08-30T06:06:47.773Z,1073.00
2022-08-30T06:07:48.557Z,1199.00
2022-08-30T06:08:47.746Z,1017.00
2022-08-30T06:09:47.715Z,1048.00
2022-08-30T06:10:52.689Z,1027.00
2022-08-30T06:11:47.724Z,1068.00
2022-08-30T06:12:47.709Z,1048.00
2022-08-30T06:13:47.676Z,1080.00
2022-08-30T06:14:47.687Z,1109.00
2022-08-30T06:15:50.353Z,1129.00
2022-08-30T06:16:49.477Z,1120.00
2022-08-30T06:17:47.627Z,915.00
2022-08-30T06:18:50.061Z,1359.00
2022-08-30T06:19:47.607Z,1183.00
2022-08-30T06:20:50.198Z,984.00
2022-08-30T06:21:47.607Z,1186.00
2022-08-30T06:22:48.389Z,1018.00
2022-08-30T06:23:47.577Z,1270.00
2022-08-30T06:24:57.309Z,1271.00
2022-08-30T06:25:48.567Z,1272.00
2022-08-30T06:26:50.263Z,1275.00
2022-08-30T06:27:48.230Z,1398.00
2022-08-30T06:28:47.509Z,1301.00
2022-08-30T06:29:47.509Z,1556.00
2022-08-30T06:30:50.237Z,1352.00
2022-08-30T06:31:47.562Z,1331.00
2022-08-30T06:32:48.286Z,1390.00
2022-08-30T06:33:47.461Z,1372.00
2022-08-30T06:34:47.481Z,1458.00
2022-08-30T06:35:59.090Z,1828.00
2022-08-30T06:36:50.130Z,1340.00
2022-08-30T06:37:48.233Z,1469.00
2022-08-30T06:38:47.429Z,1492.00
2022-08-30T06:39:47.412Z,1456.00
2022-08-30T06:40:47.508Z,909.00
2022-08-30T06:41:50.040Z,1815.00
2022-08-30T06:42:47.372Z,1030.00
2022-08-30T06:43:49.293Z,1556.00
2022-08-30T06:44:49.271Z,1559.00
2022-08-30T06:45:47.341Z,1601.00
2022-08-30T06:46:48.206Z,1638.00
2022-08-30T06:47:47.380Z,1500.00
2022-08-30T06:48:48.418Z,1666.00
2022-08-30T06:49:47.294Z,1566.00
2022-08-30T06:50:47.295Z,1596.00
2022-08-30T06:51:48.073Z,1672.00
2022-08-30T06:52:47.375Z,1631.00
2022-08-30T06:53:47.305Z,1646.00
2022-08-30T06:54:47.227Z,1625.00
2022-08-30T06:55:47.215Z,1643.00
2022-08-30T06:56:58.237Z,1768.00
2022-08-30T06:57:48.225Z,1551.00
2022-08-30T06:58:48.967Z,1861.00
2022-08-30T06:59:48.024Z,1554.00
2022-08-30T07:00:49.847Z,1725.00
2022-08-30T07:01:48.891Z,1637.00
2022-08-30T07:02:47.316Z,1678.00
2022-08-30T07:03:47.175Z,1755.00
2022-08-30T07:04:47.127Z,1804.00
2022-08-30T07:05:47.117Z,1714.00
2022-08-30T07:06:49.097Z,1767.00
2022-08-30T07:07:47.122Z,1803.00
2022-08-30T07:08:47.101Z,1731.00
2022-08-30T07:09:49.007Z,1755.00
2022-08-30T07:10:47.118Z,1812.00
2022-08-30T07:11:48.787Z,1851.00
2022-08-30T07:12:47.049Z,1697.00
2022-08-30T07:13:49.350Z,1941.00
2022-08-30T07:14:47.052Z,1762.00
2022-08-30T07:15:47.052Z,1676.00
2022-08-30T07:16:47.031Z,1827.00
2022-08-30T07:17:48.890Z,1829.00
2022-08-30T07:18:47.231Z,1845.00
2022-08-30T07:19:48.581Z,1890.00
2022-08-30T07:20:47.770Z,1900.00
2022-08-30T07:21:48.593Z,1764.00
2022-08-30T07:22:48.311Z,2050.00
2022-08-30T07:23:53.239Z,1863.00
2022-08-30T07:24:47.768Z,1770.00
2022-08-30T07:25:48.730Z,1912.00
2022-08-30T07:26:52.466Z,1957.00
2022-08-30T07:28:19.373Z,1968.00
2022-08-30T07:28:56.287Z,1906.00
2022-08-30T07:38:01.205Z,1992.00
2022-08-30T07:38:36.258Z,1579.00
2022-08-30T07:53:11.251Z,2205.00
2022-08-30T07:55:48.669Z,2172.00
2022-08-30T07:57:40.356Z,2250.00
2022-08-30T07:58:40.314Z,2524.00
2022-08-30T07:59:40.309Z,2477.00
2022-08-30T08:00:43.025Z,1824.00
2022-08-30T08:01:40.361Z,2264.00
2022-08-30T08:02:40.336Z,2090.00
2022-08-30T08:03:42.995Z,2311.00
2022-08-30T08:04:41.076Z,2448.00
2022-08-30T08:05:41.948Z,2390.00
2022-08-30T08:06:42.932Z,2232.00
2022-08-30T08:07:40.241Z,2309.00
2022-08-30T08:08:40.216Z,2433.00
2022-08-30T08:09:40.229Z,2433.00
2022-08-30T08:10:40.211Z,2408.00
2022-08-30T08:11:40.182Z,2320.00
2022-08-30T08:12:40.173Z,2615.00
2022-08-30T08:13:53.368Z,2569.00
2022-08-30T08:14:41.974Z,2873.00
2022-08-30T08:15:42.174Z,2824.00
2022-08-30T08:16:40.223Z,2373.00
2022-08-30T08:17:40.142Z,2660.00
2022-08-30T08:18:40.140Z,2814.00
2022-08-30T08:19:40.107Z,2678.00
2022-08-30T08:20:43.963Z,2578.00
2022-08-30T08:21:42.704Z,2800.00
2022-08-30T08:22:40.885Z,2799.00
2022-08-30T08:23:40.873Z,2596.00
2022-08-30T08:24:40.061Z,2467.00
2022-08-30T08:25:43.186Z,2538.00
2022-08-30T08:26:41.105Z,2279.00
2022-08-30T08:27:41.018Z,2787.00
2022-08-30T08:28:40.018Z,2841.00
2022-08-30T08:29:42.153Z,3076.00
2022-08-30T08:30:47.606Z,2805.00
2022-08-30T08:31:41.064Z,2774.00
2022-08-30T08:32:41.704Z,2773.00
2022-08-30T08:33:42.607Z,2819.00
2022-08-30T08:34:39.961Z,3038.00
2022-08-30T08:35:39.941Z,2911.00
2022-08-30T08:36:39.936Z,3165.00
2022-08-30T08:37:41.824Z,3257.00
2022-08-30T08:38:39.926Z,2822.00
2022-08-30T08:39:39.911Z,2888.00
2022-08-30T08:40:39.952Z,2956.00
2022-08-30T08:41:40.696Z,2850.00
2022-08-30T08:42:39.877Z,2751.00
2022-08-30T08:43:42.179Z,2765.00
2022-08-30T08:44:39.900Z,2682.00
2022-08-30T08:45:39.830Z,2841.00
2022-08-30T08:46:39.873Z,2830.00
2022-08-30T08:47:40.803Z,2754.00
2022-08-30T08:48:58.711Z,2863.00
2022-08-30T08:49:40.824Z,2848.00
2022-08-30T08:50:39.776Z,2920.00
2022-08-30T08:51:39.762Z,2859.00
2022-08-30T08:52:39.743Z,2827.00
2022-08-30T08:53:46.880Z,3035.00
2022-08-30T08:54:39.750Z,3017.00
2022-08-30T08:55:39.762Z,2889.00
2022-08-30T08:56:39.741Z,2904.00
2022-08-30T08:57:42.343Z,3038.00
2022-08-30T08:58:39.686Z,2883.00
2022-08-30T08:59:39.695Z,2921.00
2022-08-30T09:00:39.653Z,3106.00
2022-08-30T09:01:40.505Z,3121.00
2022-08-30T09:02:39.634Z,3003.00
2022-08-30T09:03:39.628Z,3013.00
2022-08-30T09:04:41.397Z,2977.00
2022-08-30T09:05:39.615Z,3061.00
2022-08-30T09:06:39.680Z,2972.00
2022-08-30T09:07:42.345Z,2995.00
2022-08-30T09:08:39.596Z,3080.00
2022-08-30T09:09:39.597Z,2920.00
2022-08-30T09:10:50.458Z,2953.00
2022-08-30T09:11:40.567Z,2973.00
2022-08-30T09:12:39.545Z,3074.00
2022-08-30T09:13:41.408Z,2817.00
2022-08-30T09:14:44.245Z,3216.00
2022-08-30T09:15:40.556Z,3063.00
2022-08-30T09:16:39.501Z,3093.00
2022-08-30T09:17:43.121Z,3116.00
2022-08-30T09:18:40.300Z,3267.00
2022-08-30T09:19:39.488Z,3077.00
2022-08-30T09:20:39.448Z,3172.00
2022-08-30T09:21:39.430Z,3164.00
2022-08-30T09:22:39.422Z,3374.00
2022-08-30T09:23:39.424Z,3367.00
2022-08-30T09:24:40.233Z,3389.00
2022-08-30T09:25:45.963Z,3538.00
2022-08-30T09:43:03.079Z,3427.00
2022-08-30T09:45:20.055Z,3580.00
2022-08-30T09:46:16.473Z,3577.00
2022-08-30T09:48:22.309Z,3622.00
2022-08-30T09:49:22.075Z,3741.00
2022-08-30T09:51:47.873Z,3693.00
2022-08-30T09:52:37.190Z,3674.00
2022-08-30T09:53:33.745Z,3652.00
2022-08-30T09:54:33.837Z,3803.00
2022-08-30T09:55:37.177Z,3716.00
2022-08-30T09:56:37.862Z,3777.00
2022-08-30T09:57:33.675Z,3690.00
2022-08-30T09:58:30.948Z,3839.00
2022-08-30T09:59:33.467Z,3801.00
2022-08-30T10:00:32.527Z,3641.00
2022-08-30T10:01:32.630Z,3734.00
2022-08-30T10:02:35.846Z,3785.00
2022-08-30T10:03:40.295Z,3852.00
2022-08-30T10:04:35.405Z,3808.00
2022-08-30T10:05:34.958Z,3769.00
2022-08-30T10:06:32.510Z,3821.00
2022-08-30T10:07:33.458Z,3958.00
2022-08-30T10:08:35.017Z,4015.00
2022-08-30T10:09:30.838Z,4049.00
2022-08-30T10:10:32.502Z,4000.00
2022-08-30T10:11:31.659Z,3976.00
2022-08-30T10:12:31.588Z,4075.00
2022-08-30T10:13:35.474Z,4176.00
2022-08-30T10:14:37.173Z,4380.00
2022-08-30T10:15:34.360Z,4427.00
2022-08-30T10:16:37.244Z,4353.00
2022-08-30T10:17:34.499Z,4402.00
2022-08-30T10:18:34.475Z,4403.00
2022-08-30T10:19:36.252Z,4211.00
2022-08-30T10:20:33.485Z,4540.00
2022-08-30T10:21:40.325Z,4292.00
2022-08-30T10:22:35.492Z,4346.00
2022-08-30T10:23:32.423Z,4621.00
2022-08-30T10:24:33.449Z,4826.00
2022-08-30T10:25:39.450Z,4851.00
2022-08-30T10:27:43.938Z,4792.00
2022-08-30T10:29:04.949Z,4863.00
2022-08-30T10:32:24.239Z,5046.00
2022-08-30T10:34:14.359Z,4474.00
2022-08-30T10:35:19.936Z,4365.00
2022-08-30T10:36:19.593Z,4693.00
2022-08-30T10:37:34.559Z,4436.00
2022-08-30T10:38:19.353Z,4680.00
2022-08-30T10:39:45.541Z,4224.00
2022-08-30T11:43:28.507Z,5848.00
2022-08-30T12:13:50.433Z,6921.00
2022-08-30T12:18:31.868Z,6823.00
2022-08-30T12:20:40.942Z,7270.00
2022-08-30T12:21:45.102Z,7228.00
2022-08-30T12:22:47.926Z,7294.00
2022-08-30T12:24:59.182Z,7565.00
2022-08-30T12:25:48.612Z,7568.00
2022-08-30T12:26:56.640Z,7491.00
2022-08-30T12:28:14.702Z,7627.00
2022-08-30T12:41:14.015Z,19385.00
2022-08-30T12:43:14.531Z,16364.00
2022-08-30T12:44:21.375Z,17121.00
2022-08-30T12:45:43.202Z,14071.00
2022-08-30T12:46:10.596Z,18199.00
2022-08-30T12:48:54.719Z,15498.00
2022-08-30T12:49:25.296Z,16154.00
2022-08-30T12:53:30.154Z,13760.00
2022-08-30T12:54:01.153Z,14637.00
2022-08-30T12:54:57.985Z,11926.00
2022-08-30T12:57:34.959Z,15479.00
2022-08-30T12:58:10.536Z,14571.00
2022-08-30T12:59:14.570Z,16430.00
2022-08-30T13:00:33.201Z,14440.00
2022-08-30T13:01:32.375Z,14885.00
2022-08-30T13:03:25.835Z,16102.00
2022-08-30T13:04:31.508Z,16222.00
2022-08-30T13:05:24.794Z,16251.00
2022-08-30T13:06:32.091Z,15157.00
2022-08-30T13:07:22.011Z,17636.00
2022-08-30T13:08:50.138Z,17080.00
2022-08-30T13:09:27.757Z,17916.00
2022-08-30T13:12:48.544Z,19055.00
2022-08-30T13:13:51.947Z,19764.00
2022-08-30T13:14:50.314Z,17098.00
2022-08-30T13:15:52.515Z,17943.00
2022-08-30T13:16:49.350Z,19390.00
2022-08-30T13:17:50.835Z,18556.00
2022-08-30T13:19:14.896Z,22412.00
2022-08-30T13:26:13.215Z,16025.00
2022-08-30T13:28:25.500Z,11342.00
2022-08-30T13:30:40.280Z,18865.00
2022-08-30T13:31:20.006Z,22740.00
2022-08-30T13:32:44.038Z,18527.00
2022-08-30T13:35:40.969Z,10207.00
2022-08-30T13:36:44.781Z,10723.00
2022-08-30T13:39:24.067Z,11088.00
2022-08-30T13:46:53.466Z,16950.00
2022-08-30T13:47:55.078Z,17901.00
2022-08-30T13:49:54.360Z,20502.00
2022-08-30T13:52:21.458Z,14483.00
2022-08-30T13:53:13.712Z,16692.00
2022-08-30T13:54:14.266Z,9576.00
2022-08-30T13:55:39.736Z,3868.00
2022-08-30T13:57:53.906Z,23320.00
2022-08-30T13:58:20.871Z,21968.00
2022-08-30T13:59:38.990Z,25188.00
2022-08-30T14:00:41.354Z,24821.00
2022-08-30T14:01:24.275Z,24606.00
2022-08-30T14:02:46.622Z,24614.00
2022-08-30T14:03:20.491Z,22972.00
2022-08-30T14:04:20.088Z,23042.00
2022-08-30T14:05:54.574Z,21048.00
2022-08-30T14:07:11.920Z,18198.00
2022-08-30T14:07:44.946Z,23233.00
2022-08-30T14:12:53.089Z,14861.00
2022-08-30T14:14:58.896Z,11776.00
2022-08-30T14:18:21.607Z,10764.00
2022-08-30T14:19:43.071Z,3837.00
2022-08-30T14:20:22.247Z,19144.00
2022-08-30T14:21:16.837Z,11932.00
2022-08-30T14:22:19.871Z,25653.00
2022-08-30T14:24:31.267Z,20916.00
2022-08-30T14:25:30.412Z,21849.00
2022-08-30T14:26:51.061Z,22007.00
2022-08-30T14:27:31.955Z,15016.00
2022-08-30T14:28:30.125Z,16723.00
2022-08-30T14:29:31.104Z,13015.00
2022-08-30T14:30:51.203Z,10645.00
2022-08-30T14:31:32.875Z,12688.00
2022-08-30T14:32:35.246Z,10625.00
2022-08-30T14:33:55.395Z,12386.00
2022-08-30T14:36:16.023Z,9478.00
2022-08-30T14:36:42.217Z,10078.00
2022-08-30T14:37:52.111Z,6666.00
2022-08-30T14:38:46.531Z,8550.00
2022-08-30T14:40:58.758Z,17386.00
2022-08-30T14:41:51.785Z,17377.00
2022-08-30T14:43:18.466Z,16742.00
2022-08-30T14:45:37.307Z,21168.00
2022-08-30T14:46:07.085Z,19804.00
2022-08-30T14:47:12.437Z,20665.00
2022-08-30T14:48:12.499Z,24334.00
2022-08-30T14:49:33.516Z,25438.00
2022-08-30T14:50:36.810Z,20538.00
2022-08-30T14:51:12.376Z,24783.00
2022-08-30T14:52:31.848Z,26066.00
2022-08-30T14:53:09.219Z,23933.00
2022-08-30T14:54:10.238Z,24469.00
2022-08-30T14:56:22.108Z,21198.00
2022-08-30T14:58:33.650Z,24164.00
2022-08-30T14:59:57.777Z,21547.00
2022-08-30T15:01:46.803Z,28334.00
2022-08-30T15:03:03.966Z,30254.00
2022-08-30T15:03:45.381Z,29301.00
2022-08-30T15:04:42.076Z,29262.00
2022-08-30T15:05:46.550Z,27306.00
2022-08-30T15:07:16.478Z,26659.00
2022-08-30T15:07:45.369Z,28826.00
2022-08-30T15:09:12.111Z,28630.00
2022-08-30T15:10:11.804Z,29809.00
2022-08-30T15:10:45.317Z,19540.00
2022-08-30T15:12:54.245Z,25917.00
2022-08-30T15:16:20.724Z,26913.00
2022-08-30T15:17:37.502Z,27360.00
2022-08-30T15:18:16.782Z,27570.00
2022-08-30T15:19:24.760Z,27669.00
2022-08-30T15:20:19.238Z,27578.00
2022-08-30T15:23:00.385Z,21237.00
2022-08-30T15:23:39.762Z,21922.00
2022-08-30T15:25:08.772Z,19723.00
2022-08-30T15:27:15.280Z,17580.00
2022-08-30T15:27:58.385Z,18399.00
2022-08-30T15:29:15.463Z,6163.00
2022-08-30T15:31:08.617Z,18824.00
2022-08-30T15:32:11.048Z,16227.00
2022-08-30T15:35:54.484Z,8109.00
2022-08-30T15:36:51.757Z,2931.00
2022-08-30T15:37:29.870Z,14154.00
2022-08-30T15:39:49.243Z,5440.00
2022-08-30T15:44:19.246Z,5468.00
2022-08-30T15:47:41.577Z,4408.00
2022-08-30T15:48:41.794Z,4414.00
2022-08-30T15:50:51.774Z,6428.00
2022-08-30T15:51:54.329Z,5647.00
2022-08-30T15:53:11.618Z,7865.00
2022-08-30T15:55:36.476Z,8123.00
2022-08-30T15:56:18.597Z,3189.00
2022-08-30T15:57:10.575Z,6997.00
2022-08-30T15:58:36.700Z,17085.00
2022-08-30T15:59:18.562Z,20897.00
2022-08-30T16:00:44.704Z,19890.00
2022-08-30T16:02:27.819Z,20953.00
2022-08-30T16:03:22.634Z,22330.00
2022-08-30T16:05:59.337Z,20889.00
2022-08-30T16:07:01.468Z,21201.00
2022-08-30T16:07:40.419Z,16973.00
2022-08-30T16:08:50.266Z,20582.00
2022-08-30T16:10:48.086Z,17150.00
2022-08-30T16:11:54.970Z,19404.00
2022-08-30T16:14:03.149Z,16594.00
2022-08-30T16:15:27.431Z,19328.00
2022-08-30T16:17:08.132Z,13512.00
2022-08-30T16:18:33.845Z,13491.00
2022-08-30T16:19:11.214Z,20431.00
2022-08-30T16:20:23.752Z,9308.00
2022-08-30T16:21:14.622Z,11952.00
2022-08-30T16:22:35.738Z,16586.00
2022-08-30T16:23:14.343Z,3003.00
2022-08-30T16:29:19.257Z,5267.00
2022-08-30T16:31:18.686Z,6967.00
2022-08-30T16:32:11.269Z,3260.00
2022-08-30T16:36:47.136Z,9782.00
2022-08-30T16:39:02.697Z,10802.00
2022-08-30T16:40:00.188Z,12994.00
2022-08-30T16:41:21.522Z,14334.00
2022-08-30T16:41:57.615Z,2972.00